Terminal Aerodrome Forecast
Issued by NWS Mobile, AL

Home | Current Version | Previous Version | Text Only | Print | Product List | Glossary On
Versions: 1 2 3 4 5 6 7 8 9 10 11 12 13 14 15 16 17 18
000
FTUS44 KMOB 240542
TAFPNS
TAF
KPNS 240542Z 2406/2506 VRB03KT 6SM BR SKC
     FM240900 VRB03KT 3SM BR SCT007
      TEMPO 2409/2413 1SM BR BKN004
     FM241400 14007KT P6SM FEW015 FEW250
     FM241800 17010KT P6SM SCT030 SCT250=

USA.gov is the U.S. government's official web portal to all federal, state and local government web resources and services.